sensor_id;sensor_type;location;lat;lon;timestamp;pressure;altitude;pressure_sealevel;temperature;humidity
61554;BME280;47425;51.976;5.326;2023-04-06T00:00:22;101686.63;;;10.15;41.78
61554;BME280;47425;51.976;5.326;2023-04-06T00:02:48;101692.75;;;10.09;41.95
61554;BME280;47425;51.976;5.326;2023-04-06T00:05:16;101689.28;;;10.02;42.47
61554;BME280;47425;51.976;5.326;2023-04-06T00:07:42;101690.19;;;9.98;42.14
61554;BME280;47425;51.976;5.326;2023-04-06T00:10:09;101682.38;;;9.83;42.16
61554;BME280;47425;51.976;5.326;2023-04-06T00:12:35;101683.34;;;9.62;42.62
61554;BME280;47425;51.976;5.326;2023-04-06T00:15:05;101678.06;;;9.74;43.07
61554;BME280;47425;51.976;5.326;2023-04-06T00:17:32;101678.03;;;9.79;42.53
61554;BME280;47425;51.976;5.326;2023-04-06T00:19:58;101678.06;;;9.69;42.65
61554;BME280;47425;51.976;5.326;2023-04-06T00:22:25;101679.84;;;9.60;42.22
61554;BME280;47425;51.976;5.326;2023-04-06T00:24:51;101674.66;;;9.56;43.01
61554;BME280;47425;51.976;5.326;2023-04-06T00:27:17;101672.88;;;9.58;42.81
61554;BME280;47425;51.976;5.326;2023-04-06T00:29:44;101670.22;;;9.69;43.63
61554;BME280;47425;51.976;5.326;2023-04-06T00:32:13;101660.59;;;9.76;43.04
61554;BME280;47425;51.976;5.326;2023-04-06T00:34:40;101659.72;;;9.85;42.96
61554;BME280;47425;51.976;5.326;2023-04-06T00:37:06;101655.34;;;9.90;43.54
61554;BME280;47425;51.976;5.326;2023-04-06T00:39:32;101659.56;;;10.11;43.61
61554;BME280;47425;51.976;5.326;2023-04-06T00:42:00;101653.41;;;10.24;43.25
61554;BME280;47425;51.976;5.326;2023-04-06T00:44:28;101652.56;;;10.22;42.73
61554;BME280;47425;51.976;5.326;2023-04-06T00:46:54;101646.41;;;10.28;43.19
61554;BME280;47425;51.976;5.326;2023-04-06T00:49:23;101638.53;;;10.34;43.17
61554;BME280;47425;51.976;5.326;2023-04-06T00:51:50;101642.03;;;10.35;42.78
61554;BME280;47425;51.976;5.326;2023-04-06T00:54:16;101638.50;;;10.31;42.66
61554;BME280;47425;51.976;5.326;2023-04-06T00:56:43;101634.16;;;10.38;42.60
61554;BME280;47425;51.976;5.326;2023-04-06T00:59:11;101635.91;;;10.33;42.36
61554;BME280;47425;51.976;5.326;2023-04-06T01:01:37;101631.56;;;10.25;42.44
61554;BME280;47425;51.976;5.326;2023-04-06T01:04:16;101629.78;;;10.32;42.75
61554;BME280;47425;51.976;5.326;2023-04-06T01:09:33;101625.91;;;10.90;43.74
61554;BME280;47425;51.976;5.326;2023-04-06T01:12:20;101620.34;;;11.20;43.53
61554;BME280;47425;51.976;5.326;2023-04-06T01:14:46;101618.31;;;11.45;43.18
61554;BME280;47425;51.976;5.326;2023-04-06T01:17:14;101613.06;;;11.48;42.30
61554;BME280;47425;51.976;5.326;2023-04-06T01:20:00;101620.78;;;11.59;42.72
61554;BME280;47425;51.976;5.326;2023-04-06T01:22:32;101622.47;;;11.65;42.90
61554;BME280;47425;51.976;5.326;2023-04-06T01:25:01;101616.91;;;11.88;43.45
61554;BME280;47425;51.976;5.326;2023-04-06T01:27:51;101616.47;;;12.23;43.12
61554;BME280;47425;51.976;5.326;2023-04-06T01:30:22;101613.53;;;12.42;42.25
61554;BME280;47425;51.976;5.326;2023-04-06T01:32:58;101608.06;;;12.56;42.60
61554;BME280;47425;51.976;5.326;2023-04-06T01:35:48;101602.66;;;12.65;42.46
61554;BME280;47425;51.976;5.326;2023-04-06T01:38:21;101598.94;;;12.79;42.18
61554;BME280;47425;51.976;5.326;2023-04-06T01:40:48;101599.88;;;12.74;41.23
61554;BME280;47425;51.976;5.326;2023-04-06T01:43:19;101598.31;;;12.64;41.87
61554;BME280;47425;51.976;5.326;2023-04-06T01:46:14;101591.41;;;12.58;41.77
61554;BME280;47425;51.976;5.326;2023-04-06T01:48:43;101591.28;;;12.65;41.95
61554;BME280;47425;51.976;5.326;2023-04-06T01:51:31;101589.56;;;12.64;41.44
61554;BME280;47425;51.976;5.326;2023-04-06T01:54:01;101583.41;;;12.63;41.08
61554;BME280;47425;51.976;5.326;2023-04-06T01:56:44;101588.47;;;12.77;42.09
61554;BME280;47425;51.976;5.326;2023-04-06T01:59:24;101581.97;;;12.97;41.90
61554;BME280;47425;51.976;5.326;2023-04-06T02:01:54;101584.53;;;13.01;41.53
61554;BME280;47425;51.976;5.326;2023-04-06T02:04:22;101577.38;;;13.08;41.02
61554;BME280;47425;51.976;5.326;2023-04-06T02:06:56;101567.72;;;13.08;40.87
61554;BME280;47425;51.976;5.326;2023-04-06T02:09:27;101570.63;;;12.95;40.61
61554;BME280;47425;51.976;5.326;2023-04-06T02:11:54;101562.00;;;12.85;40.62
61554;BME280;47425;51.976;5.326;2023-04-06T02:14:20;101561.78;;;12.99;41.75
61554;BME280;47425;51.976;5.326;2023-04-06T02:16:51;101562.38;;;13.12;41.47
61554;BME280;47425;51.976;5.326;2023-04-06T02:19:39;101554.25;;;13.25;41.46
61554;BME280;47425;51.976;5.326;2023-04-06T02:22:05;101544.53;;;13.27;40.48
61554;BME280;47425;51.976;5.326;2023-04-06T02:24:32;101546.22;;;13.32;40.91
61554;BME280;47425;51.976;5.326;2023-04-06T02:26:58;101543.91;;;13.16;39.42
61554;BME280;47425;51.976;5.326;2023-04-06T02:29:26;101547.31;;;13.20;41.63
61554;BME280;47425;51.976;5.326;2023-04-06T02:31:53;101546.94;;;13.40;40.93
61554;BME280;47425;51.976;5.326;2023-04-06T02:34:20;101542.59;;;13.39;40.71
61554;BME280;47425;51.976;5.326;2023-04-06T02:36:52;101538.97;;;13.45;40.86
61554;BME280;47425;51.976;5.326;2023-04-06T02:39:19;101532.59;;;13.56;40.67
61554;BME280;47425;51.976;5.326;2023-04-06T02:41:46;101531.75;;;13.54;40.73
61554;BME280;47425;51.976;5.326;2023-04-06T02:44:18;101524.06;;;13.43;40.03
61554;BME280;47425;51.976;5.326;2023-04-06T02:46:46;101533.59;;;13.49;40.79
61554;BME280;47425;51.976;5.326;2023-04-06T02:49:12;101529.25;;;13.47;40.09
61554;BME280;47425;51.976;5.326;2023-04-06T02:51:39;101530.00;;;13.53;40.65
61554;BME280;47425;51.976;5.326;2023-04-06T02:54:21;101485.66;;;13.33;40.76
61554;BME280;47425;51.976;5.326;2023-04-06T02:56:49;101514.84;;;13.65;40.31
61554;BME280;47425;51.976;5.326;2023-04-06T02:59:16;101518.25;;;13.68;39.77
61554;BME280;47425;51.976;5.326;2023-04-06T03:01:51;101514.84;;;13.65;40.64
61554;BME280;47425;51.976;5.326;2023-04-06T03:04:18;101507.94;;;13.61;39.25
61554;BME280;47425;51.976;5.326;2023-04-06T03:06:46;101506.28;;;13.55;40.59
61554;BME280;47425;51.976;5.326;2023-04-06T03:09:23;101508.78;;;13.61;40.46
61554;BME280;47425;51.976;5.326;2023-04-06T03:11:49;101504.16;;;13.71;40.82
61554;BME280;47425;51.976;5.326;2023-04-06T03:14:17;101501.09;;;13.89;41.01
61554;BME280;47425;51.976;5.326;2023-04-06T03:16:46;101504.09;;;14.12;40.51
61554;BME280;47425;51.976;5.326;2023-04-06T03:19:17;101500.28;;;14.25;40.86
61554;BME280;47425;51.976;5.326;2023-04-06T03:21:45;101503.47;;;14.36;40.31
61554;BME280;47425;51.976;5.326;2023-04-06T03:24:14;101504.38;;;14.37;40.15
61554;BME280;47425;51.976;5.326;2023-04-06T03:26:42;101501.97;;;14.27;39.52
61554;BME280;47425;51.976;5.326;2023-04-06T03:29:10;101499.31;;;14.27;39.85
61554;BME280;47425;51.976;5.326;2023-04-06T03:31:37;101490.66;;;14.22;39.43
61554;BME280;47425;51.976;5.326;2023-04-06T03:34:18;101494.50;;;14.09;39.40
61554;BME280;47425;51.976;5.326;2023-04-06T03:36:45;101489.50;;;13.98;39.18
61554;BME280;47425;51.976;5.326;2023-04-06T03:39:13;101490.97;;;13.74;38.12
61554;BME280;47425;51.976;5.326;2023-04-06T03:41:43;101485.00;;;13.64;40.02
61554;BME280;47425;51.976;5.326;2023-04-06T03:44:28;101484.84;;;13.72;40.26
61554;BME280;47425;51.976;5.326;2023-04-06T03:47:15;101482.84;;;13.82;39.91
61554;BME280;47425;51.976;5.326;2023-04-06T03:49:41;101478.56;;;13.79;40.55
61554;BME280;47425;51.976;5.326;2023-04-06T03:52:11;101479.38;;;13.81;40.17
61554;BME280;47425;51.976;5.326;2023-04-06T03:54:38;101481.19;;;13.77;40.42
61554;BME280;47425;51.976;5.326;2023-04-06T03:57:06;101484.50;;;13.87;40.64
61554;BME280;47425;51.976;5.326;2023-04-06T03:59:32;101483.31;;;13.99;40.76
61554;BME280;47425;51.976;5.326;2023-04-06T04:02:00;101488.34;;;14.08;40.34
61554;BME280;47425;51.976;5.326;2023-04-06T04:04:26;101487.72;;;13.99;39.64
61554;BME280;47425;51.976;5.326;2023-04-06T04:06:53;101479.06;;;13.93;40.37
61554;BME280;47425;51.976;5.326;2023-04-06T04:09:20;101488.75;;;13.93;39.92
61554;BME280;47425;51.976;5.326;2023-04-06T04:11:47;101486.38;;;13.82;39.20
61554;BME280;47425;51.976;5.326;2023-04-06T04:14:14;101482.94;;;13.79;39.91
61554;BME280;47425;51.976;5.326;2023-04-06T04:16:41;101478.03;;;13.63;39.68
61554;BME280;47425;51.976;5.326;2023-04-06T04:19:08;101482.25;;;13.70;39.88
61554;BME280;47425;51.976;5.326;2023-04-06T04:21:41;101477.13;;;13.64;39.74
61554;BME280;47425;51.976;5.326;2023-04-06T04:24:08;101473.88;;;13.53;40.41
61554;BME280;47425;51.976;5.326;2023-04-06T04:26:36;101477.19;;;13.61;40.88
61554;BME280;47425;51.976;5.326;2023-04-06T04:29:05;101473.31;;;13.77;40.58
61554;BME280;47425;51.976;5.326;2023-04-06T04:31:33;101473.28;;;13.79;41.07
61554;BME280;47425;51.976;5.326;2023-04-06T04:34:03;101473.75;;;13.97;41.20
61554;BME280;47425;51.976;5.326;2023-04-06T04:36:33;101476.13;;;14.06;40.13
61554;BME280;47425;51.976;5.326;2023-04-06T04:39:03;101478.81;;;14.04;40.50
61554;BME280;47425;51.976;5.326;2023-04-06T04:41:36;101466.72;;;13.97;40.38
61554;BME280;47425;51.976;5.326;2023-04-06T04:44:06;101469.19;;;14.03;40.69
61554;BME280;47425;51.976;5.326;2023-04-06T04:46:35;101464.31;;;14.22;40.97
61554;BME280;47425;51.976;5.326;2023-04-06T04:49:03;101472.75;;;14.37;40.59
61554;BME280;47425;51.976;5.326;2023-04-06T04:51:31;101467.44;;;14.38;39.61
61554;BME280;47425;51.976;5.326;2023-04-06T04:54:05;101472.66;;;14.40;40.04
61554;BME280;47425;51.976;5.326;2023-04-06T04:56:33;101469.22;;;14.36;40.32
61554;BME280;47425;51.976;5.326;2023-04-06T04:59:16;101476.03;;;14.45;39.97
61554;BME280;47425;51.976;5.326;2023-04-06T05:01:51;101464.56;;;14.48;39.90
61554;BME280;47425;51.976;5.326;2023-04-06T05:04:19;101462.03;;;14.43;39.39
61554;BME280;47425;51.976;5.326;2023-04-06T05:06:46;101464.28;;;14.24;40.09
61554;BME280;47425;51.976;5.326;2023-04-06T05:09:13;101465.00;;;14.31;40.19
61554;BME280;47425;51.976;5.326;2023-04-06T05:11:41;101463.06;;;14.37;39.47
61554;BME280;47425;51.976;5.326;2023-04-06T05:14:09;101462.50;;;14.24;39.53
61554;BME280;47425;51.976;5.326;2023-04-06T05:16:36;101462.53;;;14.23;39.71
61554;BME280;47425;51.976;5.326;2023-04-06T05:19:04;101459.66;;;14.32;40.34
61554;BME280;47425;51.976;5.326;2023-04-06T05:21:38;101460.09;;;14.50;40.33
61554;BME280;47425;51.976;5.326;2023-04-06T05:24:07;101458.91;;;14.62;40.29
61554;BME280;47425;51.976;5.326;2023-04-06T05:26:54;101460.53;;;14.67;38.98
61554;BME280;47425;51.976;5.326;2023-04-06T05:29:23;101447.38;;;14.66;39.23
61554;BME280;47425;51.976;5.326;2023-04-06T05:31:51;101461.53;;;14.62;39.92
61554;BME280;47425;51.976;5.326;2023-04-06T05:34:19;101449.19;;;14.64;39.92
61554;BME280;47425;51.976;5.326;2023-04-06T05:36:47;101455.94;;;14.74;40.12
61554;BME280;47425;51.976;5.326;2023-04-06T05:39:17;101455.00;;;14.76;39.94
61554;BME280;47425;51.976;5.326;2023-04-06T05:41:50;101453.94;;;14.82;39.22
61554;BME280;47425;51.976;5.326;2023-04-06T05:44:31;101450.38;;;14.85;39.28
61554;BME280;47425;51.976;5.326;2023-04-06T05:47:06;101456.53;;;14.85;39.12
61554;BME280;47425;51.976;5.326;2023-04-06T05:49:37;101448.63;;;14.85;39.34
61554;BME280;47425;51.976;5.326;2023-04-06T05:52:09;101456.22;;;14.94;39.38
61554;BME280;47425;51.976;5.326;2023-04-06T05:54:36;101452.88;;;14.89;38.49
61554;BME280;47425;51.976;5.326;2023-04-06T05:57:03;101452.19;;;14.83;39.20
61554;BME280;47425;51.976;5.326;2023-04-06T05:59:31;101457.59;;;14.78;39.33
61554;BME280;47425;51.976;5.326;2023-04-06T06:01:57;101450.66;;;14.74;39.01
61554;BME280;47425;51.976;5.326;2023-04-06T06:04:27;101455.16;;;14.70;39.06
61554;BME280;47425;51.976;5.326;2023-04-06T06:06:55;101455.91;;;14.75;40.13
61554;BME280;47425;51.976;5.326;2023-04-06T06:09:32;101450.16;;;14.92;39.34
61554;BME280;47425;51.976;5.326;2023-04-06T06:12:11;101456.97;;;15.00;39.75
61554;BME280;47425;51.976;5.326;2023-04-06T06:14:39;101450.53;;;15.10;39.79
61554;BME280;47425;51.976;5.326;2023-04-06T06:17:06;101458.38;;;15.12;39.28
61554;BME280;47425;51.976;5.326;2023-04-06T06:19:34;101454.91;;;15.11;39.75
61554;BME280;47425;51.976;5.326;2023-04-06T06:22:05;101455.44;;;15.22;40.15
61554;BME280;47425;51.976;5.326;2023-04-06T06:24:35;101455.19;;;15.30;40.20
61554;BME280;47425;51.976;5.326;2023-04-06T06:27:02;101459.03;;;15.50;40.63
61554;BME280;47425;51.976;5.326;2023-04-06T06:29:32;101459.34;;;15.67;40.57
61554;BME280;47425;51.976;5.326;2023-04-06T06:31:59;101451.00;;;15.81;39.82
61554;BME280;47425;51.976;5.326;2023-04-06T06:34:25;101450.84;;;15.86;40.34
61554;BME280;47425;51.976;5.326;2023-04-06T06:36:56;101462.00;;;15.96;40.30
61554;BME280;47425;51.976;5.326;2023-04-06T06:39:24;101465.00;;;16.10;39.98
61554;BME280;47425;51.976;5.326;2023-04-06T06:41:50;101474.16;;;16.26;39.86
61554;BME280;47425;51.976;5.326;2023-04-06T06:44:21;101465.69;;;16.42;39.44
61554;BME280;47425;51.976;5.326;2023-04-06T06:47:08;101471.56;;;16.50;39.56
61554;BME280;47425;51.976;5.326;2023-04-06T06:49:34;101469.56;;;16.57;39.39
61554;BME280;47425;51.976;5.326;2023-04-06T06:52:01;101467.75;;;16.59;39.31
61554;BME280;47425;51.976;5.326;2023-04-06T06:54:28;101457.97;;;16.61;39.25
61554;BME280;47425;51.976;5.326;2023-04-06T06:56:56;101458.09;;;16.58;39.55
61554;BME280;47425;51.976;5.326;2023-04-06T06:59:23;101458.84;;;16.61;39.06
61554;BME280;47425;51.976;5.326;2023-04-06T07:01:50;101451.38;;;16.48;38.79
61554;BME280;47425;51.976;5.326;2023-04-06T07:04:16;101452.47;;;16.42;39.61
61554;BME280;47425;51.976;5.326;2023-04-06T07:06:44;101449.75;;;16.45;39.40
61554;BME280;47425;51.976;5.326;2023-04-06T07:09:11;101446.06;;;16.49;39.34
61554;BME280;47425;51.976;5.326;2023-04-06T07:11:38;101445.97;;;16.52;39.50
61554;BME280;47425;51.976;5.326;2023-04-06T07:14:06;101437.91;;;16.55;39.41
61554;BME280;47425;51.976;5.326;2023-04-06T07:16:32;101444.88;;;16.58;39.22
61554;BME280;47425;51.976;5.326;2023-04-06T07:18:59;101448.28;;;16.61;39.37
61554;BME280;47425;51.976;5.326;2023-04-06T07:21:25;101441.03;;;16.67;39.37
61554;BME280;47425;51.976;5.326;2023-04-06T07:23:54;101439.13;;;16.70;39.04
61554;BME280;47425;51.976;5.326;2023-04-06T07:26:21;101443.44;;;16.73;39.30
61554;BME280;47425;51.976;5.326;2023-04-06T07:29:09;101435.63;;;16.70;39.12
61554;BME280;47425;51.976;5.326;2023-04-06T07:31:36;101434.59;;;16.74;39.08
61554;BME280;47425;51.976;5.326;2023-04-06T07:34:04;101434.53;;;16.75;38.83
61554;BME280;47425;51.976;5.326;2023-04-06T07:36:30;101443.44;;;16.73;39.04
61554;BME280;47425;51.976;5.326;2023-04-06T07:38:58;101440.16;;;16.66;39.13
61554;BME280;47425;51.976;5.326;2023-04-06T07:41:24;101440.22;;;16.65;39.37
61554;BME280;47425;51.976;5.326;2023-04-06T07:43:53;101399.66;;;16.40;39.22
61554;BME280;47425;51.976;5.326;2023-04-06T07:46:22;101439.94;;;16.72;39.32
61554;BME280;47425;51.976;5.326;2023-04-06T07:48:49;101433.69;;;16.75;39.07
61554;BME280;47425;51.976;5.326;2023-04-06T07:51:17;101434.53;;;16.75;39.08
61554;BME280;47425;51.976;5.326;2023-04-06T07:53:44;101438.78;;;16.80;39.31
61554;BME280;47425;51.976;5.326;2023-04-06T07:56:11;101438.63;;;16.84;38.91
61554;BME280;47425;51.976;5.326;2023-04-06T07:58:38;101429.72;;;16.87;38.93
61554;BME280;47425;51.976;5.326;2023-04-06T08:01:05;101427.84;;;16.90;38.99
61554;BME280;47425;51.976;5.326;2023-04-06T08:03:34;101434.00;;;16.91;38.84
61554;BME280;47425;51.976;5.326;2023-04-06T08:06:00;101436.53;;;16.94;38.61
61554;BME280;47425;51.976;5.326;2023-04-06T08:08:27;101431.19;;;16.96;38.66
61554;BME280;47425;51.976;5.326;2023-04-06T08:10:53;101426.78;;;16.96;38.73
61554;BME280;47425;51.976;5.326;2023-04-06T08:13:20;101432.72;;;17.01;38.59
61554;BME280;47425;51.976;5.326;2023-04-06T08:15:46;101436.00;;;17.08;38.40
61554;BME280;47425;51.976;5.326;2023-04-06T08:18:14;101431.47;;;17.11;38.23
61554;BME280;47425;51.976;5.326;2023-04-06T08:20:42;101431.41;;;17.13;38.19
61554;BME280;47425;51.976;5.326;2023-04-06T08:23:08;101437.50;;;17.15;38.18
61554;BME280;47425;51.976;5.326;2023-04-06T08:25:36;101436.47;;;17.19;38.14
61554;BME280;47425;51.976;5.326;2023-04-06T08:28:04;101435.41;;;17.23;37.83
61554;BME280;47425;51.976;5.326;2023-04-06T08:30:30;101441.56;;;17.24;37.88
61554;BME280;47425;51.976;5.326;2023-04-06T08:32:57;101433.56;;;17.25;37.92
61554;BME280;47425;51.976;5.326;2023-04-06T08:35:25;101435.13;;;17.31;37.74
61554;BME280;47425;51.976;5.326;2023-04-06T08:37:53;101435.91;;;17.33;37.85
61554;BME280;47425;51.976;5.326;2023-04-06T08:40:19;101444.59;;;17.37;37.59
61554;BME280;47425;51.976;5.326;2023-04-06T08:42:49;101440.16;;;17.37;37.71
61554;BME280;47425;51.976;5.326;2023-04-06T08:45:17;101436.53;;;17.40;37.65
61554;BME280;47425;51.976;5.326;2023-04-06T08:47:46;101439.03;;;17.44;37.54
61554;BME280;47425;51.976;5.326;2023-04-06T08:50:13;101431.94;;;17.45;37.39
61554;BME280;47425;51.976;5.326;2023-04-06T08:52:40;101445.38;;;17.40;37.39
61554;BME280;47425;51.976;5.326;2023-04-06T08:55:11;101443.56;;;17.41;37.42
61554;BME280;47425;51.976;5.326;2023-04-06T08:57:38;101445.38;;;17.40;37.46
61554;BME280;47425;51.976;5.326;2023-04-06T09:00:05;101441.84;;;17.40;37.41
61554;BME280;47425;51.976;5.326;2023-04-06T09:02:34;101430.38;;;17.39;37.51
61554;BME280;47425;51.976;5.326;2023-04-06T09:05:03;101446.16;;;17.42;37.38
61554;BME280;47425;51.976;5.326;2023-04-06T09:07:30;101449.66;;;17.43;37.25
61554;BME280;47425;51.976;5.326;2023-04-06T09:09:56;101443.44;;;17.44;37.03
61554;BME280;47425;51.976;5.326;2023-04-06T09:12:26;101446.97;;;17.44;37.33
61554;BME280;47425;51.976;5.326;2023-04-06T09:14:52;101450.53;;;17.43;37.23
61554;BME280;47425;51.976;5.326;2023-04-06T09:17:20;101452.34;;;17.41;37.33
61554;BME280;47425;51.976;5.326;2023-04-06T09:19:48;101448.47;;;17.28;37.31
61554;BME280;47425;51.976;5.326;2023-04-06T09:22:14;101450.88;;;17.34;37.47
61554;BME280;47425;51.976;5.326;2023-04-06T09:24:41;101449.91;;;17.37;37.26
61554;BME280;47425;51.976;5.326;2023-04-06T09:27:09;101450.81;;;17.36;37.11
61554;BME280;47425;51.976;5.326;2023-04-06T09:29:37;101447.53;;;17.29;37.27
61554;BME280;47425;51.976;5.326;2023-04-06T09:32:03;101442.94;;;17.34;37.44
61554;BME280;47425;51.976;5.326;2023-04-06T09:34:30;101442.59;;;17.43;37.43
61554;BME280;47425;51.976;5.326;2023-04-06T09:36:58;101445.16;;;17.45;37.09
61554;BME280;47425;51.976;5.326;2023-04-06T09:39:25;101439.81;;;17.47;37.09
61554;BME280;47425;51.976;5.326;2023-04-06T09:41:51;101439.66;;;17.50;37.00
61554;BME280;47425;51.976;5.326;2023-04-06T09:44:20;101440.47;;;17.52;36.90
61554;BME280;47425;51.976;5.326;2023-04-06T09:47:03;101433.59;;;17.48;37.07
61554;BME280;47425;51.976;5.326;2023-04-06T09:49:33;101432.47;;;17.53;36.95
61554;BME280;47425;51.976;5.326;2023-04-06T09:52:00;101441.94;;;17.59;36.95
61554;BME280;47425;51.976;5.326;2023-04-06T09:54:29;101441.91;;;17.60;36.86
61554;BME280;47425;51.976;5.326;2023-04-06T09:56:56;101448.69;;;17.68;36.62
61554;BME280;47425;51.976;5.326;2023-04-06T09:59:25;101447.75;;;17.69;36.44
61554;BME280;47425;51.976;5.326;2023-04-06T10:01:54;101433.22;;;17.57;36.84
61554;BME280;47425;51.976;5.326;2023-04-06T10:04:27;101434.44;;;17.48;37.08
61554;BME280;47425;51.976;5.326;2023-04-06T10:06:58;101444.19;;;17.48;36.74
61554;BME280;47425;51.976;5.326;2023-04-06T10:09:25;101446.09;;;17.44;36.89
61554;BME280;47425;51.976;5.326;2023-04-06T10:11:55;101443.72;;;17.36;37.07
61554;BME280;47425;51.976;5.326;2023-04-06T10:14:22;101441.16;;;17.35;37.33
61554;BME280;47425;51.976;5.326;2023-04-06T10:16:48;101439.47;;;17.32;37.28
61554;BME280;47425;51.976;5.326;2023-04-06T10:19:16;101444.22;;;17.24;37.40
61554;BME280;47425;51.976;5.326;2023-04-06T10:21:48;101446.06;;;17.22;37.40
61554;BME280;47425;51.976;5.326;2023-04-06T10:24:18;101442.03;;;17.11;37.80
61554;BME280;47425;51.976;5.326;2023-04-06T10:26:54;101446.22;;;17.17;37.53
61554;BME280;47425;51.976;5.326;2023-04-06T10:29:23;101444.56;;;17.15;37.61
61554;BME280;47425;51.976;5.326;2023-04-06T10:31:50;101444.91;;;17.05;37.76
61554;BME280;47425;51.976;5.326;2023-04-06T10:34:16;101445.78;;;17.06;38.10
61554;BME280;47425;51.976;5.326;2023-04-06T10:36:43;101448.50;;;17.04;37.88
61554;BME280;47425;51.976;5.326;2023-04-06T10:39:12;101450.34;;;17.02;37.94
61554;BME280;47425;51.976;5.326;2023-04-06T10:41:41;101448.66;;;17.00;38.17
61554;BME280;47425;51.976;5.326;2023-04-06T10:44:07;101445.28;;;16.96;38.17
61554;BME280;47425;51.976;5.326;2023-04-06T10:46:35;101440.16;;;16.91;38.51
61554;BME280;47425;51.976;5.326;2023-04-06T10:49:11;101442.72;;;16.93;38.38
61554;BME280;47425;51.976;5.326;2023-04-06T10:51:38;101439.13;;;16.96;38.52
61554;BME280;47425;51.976;5.326;2023-04-06T10:54:05;101438.00;;;17.01;38.32
61554;BME280;47425;51.976;5.326;2023-04-06T10:56:36;101439.81;;;17.01;38.39
61554;BME280;47425;51.976;5.326;2023-04-06T10:59:05;101431.13;;;16.97;38.66
61554;BME280;47425;51.976;5.326;2023-04-06T11:01:31;101435.78;;;16.90;38.61
61554;BME280;47425;51.976;5.326;2023-04-06T11:03:58;101428.78;;;16.89;38.97
61554;BME280;47425;51.976;5.326;2023-04-06T11:06:26;101429.50;;;16.93;38.69
61554;BME280;47425;51.976;5.326;2023-04-06T11:08:54;101430.13;;;17.00;38.67
61554;BME280;47425;51.976;5.326;2023-04-06T11:11:21;101429.56;;;16.91;38.84
61554;BME280;47425;51.976;5.326;2023-04-06T11:13:51;101420.97;;;16.85;39.19
61554;BME280;47425;51.976;5.326;2023-04-06T11:16:18;101415.38;;;16.94;39.14
61554;BME280;47425;51.976;5.326;2023-04-06T11:18:48;101412.59;;;16.97;38.77
61554;BME280;47425;51.976;5.326;2023-04-06T11:21:16;101407.88;;;17.05;38.81
61554;BME280;47425;51.976;5.326;2023-04-06T11:23:43;101410.47;;;17.07;38.84
61554;BME280;47425;51.976;5.326;2023-04-06T11:26:10;101401.56;;;17.09;38.80
61554;BME280;47425;51.976;5.326;2023-04-06T11:28:36;101410.34;;;17.10;38.85
61554;BME280;47425;51.976;5.326;2023-04-06T11:31:06;101400.00;;;17.04;38.89
61554;BME280;47425;51.976;5.326;2023-04-06T11:33:35;101400.94;;;17.03;39.22
61554;BME280;47425;51.976;5.326;2023-04-06T11:36:09;101395.53;;;17.06;39.04
61554;BME280;47425;51.976;5.326;2023-04-06T11:38:38;101387.66;;;17.04;39.11
61554;BME280;47425;51.976;5.326;2023-04-06T11:41:05;101385.72;;;17.08;39.06
61554;BME280;47425;51.976;5.326;2023-04-06T11:43:32;101382.09;;;17.10;39.23
61554;BME280;47425;51.976;5.326;2023-04-06T11:46:01;101381.13;;;17.13;39.10
61554;BME280;47425;51.976;5.326;2023-04-06T11:48:31;101380.13;;;17.16;39.19
61554;BME280;47425;51.976;5.326;2023-04-06T11:50:57;101385.50;;;17.14;39.11
61554;BME280;47425;51.976;5.326;2023-04-06T11:53:26;101369.63;;;17.14;39.21
61554;BME280;47425;51.976;5.326;2023-04-06T11:55:52;101362.59;;;17.13;39.31
61554;BME280;47425;51.976;5.326;2023-04-06T11:58:20;101368.63;;;17.17;39.37
61554;BME280;47425;51.976;5.326;2023-04-06T12:00:46;101365.84;;;17.20;39.00
61554;BME280;47425;51.976;5.326;2023-04-06T12:03:13;101371.03;;;17.23;39.12
61554;BME280;47425;51.976;5.326;2023-04-06T12:05:43;101371.97;;;17.22;39.08
61554;BME280;47425;51.976;5.326;2023-04-06T12:08:09;101356.16;;;17.20;39.21
61554;BME280;47425;51.976;5.326;2023-04-06T12:10:36;101368.63;;;17.17;39.28
61554;BME280;47425;51.976;5.326;2023-04-06T12:13:03;101359.72;;;17.19;39.29
61554;BME280;47425;51.976;5.326;2023-04-06T12:15:30;101359.72;;;17.19;39.38
61554;BME280;47425;51.976;5.326;2023-04-06T12:17:56;101355.25;;;17.20;39.17
61554;BME280;47425;51.976;5.326;2023-04-06T12:20:23;101353.50;;;17.20;39.45
61554;BME280;47425;51.976;5.326;2023-04-06T12:22:52;101354.84;;;17.31;39.37
61554;BME280;47425;51.976;5.326;2023-04-06T12:25:18;101354.97;;;17.27;39.31
61554;BME280;47425;51.976;5.326;2023-04-06T12:27:45;101352.44;;;17.24;39.33
61554;BME280;47425;51.976;5.326;2023-04-06T12:30:12;101357.97;;;17.18;39.62
61554;BME280;47425;51.976;5.326;2023-04-06T12:32:40;101356.44;;;17.13;39.68
61554;BME280;47425;51.976;5.326;2023-04-06T12:35:06;101345.03;;;17.10;39.83
61554;BME280;47425;51.976;5.326;2023-04-06T12:37:34;101344.19;;;17.10;39.76
61554;BME280;47425;51.976;5.326;2023-04-06T12:40:02;101344.97;;;17.12;39.68
61554;BME280;47425;51.976;5.326;2023-04-06T12:42:30;101342.53;;;17.07;39.98
61554;BME280;47425;51.976;5.326;2023-04-06T12:44:56;101349.72;;;17.04;40.04
61554;BME280;47425;51.976;5.326;2023-04-06T12:47:23;101349.16;;;16.96;40.23
61554;BME280;47425;51.976;5.326;2023-04-06T12:49:52;101348.25;;;16.97;40.30
61554;BME280;47425;51.976;5.326;2023-04-06T12:52:19;101343.69;;;17.00;40.25
61554;BME280;47425;51.976;5.326;2023-04-06T12:54:45;101336.00;;;16.94;40.17
61554;BME280;47425;51.976;5.326;2023-04-06T12:57:13;101329.78;;;16.95;40.54
61554;BME280;47425;51.976;5.326;2023-04-06T12:59:42;101328.97;;;16.93;40.17
61554;BME280;47425;51.976;5.326;2023-04-06T13:02:09;101337.59;;;16.98;40.29